createdAt,value
2022-09-24T00:01:16.049Z,8.35
2022-09-24T00:03:47.516Z,8.41
2022-09-24T00:06:14.455Z,8.57
2022-09-24T00:08:41.916Z,8.74
2022-09-24T00:11:11.581Z,8.84
2022-09-24T00:13:39.233Z,8.79
2022-09-24T00:16:11.504Z,8.85
2022-09-24T00:18:38.724Z,8.77
2022-09-24T00:21:33.097Z,8.67
2022-09-24T00:24:47.637Z,8.86
2022-09-24T00:27:14.203Z,8.84
2022-09-24T00:29:40.825Z,8.90
2022-09-24T00:32:07.358Z,8.81
2022-09-24T00:34:34.345Z,8.83
2022-09-24T00:37:01.028Z,8.85
2022-09-24T00:39:27.752Z,8.98
2022-09-24T00:41:54.808Z,8.96
2022-09-24T00:44:45.559Z,9.05
2022-09-24T00:47:21.153Z,9.06
2022-09-24T00:49:48.714Z,9.04
2022-09-24T00:52:16.213Z,9.09
2022-09-24T00:54:44.259Z,9.21
2022-09-24T00:57:11.590Z,9.33
2022-09-24T00:59:38.271Z,9.22
2022-09-24T01:02:05.328Z,9.22
2022-09-24T01:04:32.061Z,9.23
2022-09-24T01:06:59.199Z,9.22
2022-09-24T01:09:26.485Z,9.23
2022-09-24T01:12:19.936Z,9.28
2022-09-24T01:15:08.332Z,9.10
2022-09-24T01:18:12.240Z,9.23
2022-09-24T01:20:53.957Z,9.26
2022-09-24T01:23:39.010Z,9.33
2022-09-24T01:26:40.186Z,9.34
2022-09-24T01:29:31.375Z,9.32
2022-09-24T01:32:22.840Z,9.31
2022-09-24T01:34:57.228Z,9.27
2022-09-24T01:37:25.906Z,9.04
2022-09-24T01:39:54.898Z,8.95
2022-09-24T01:42:23.473Z,8.77
2022-09-24T01:44:50.473Z,8.68
2022-09-24T01:47:21.368Z,8.72
2022-09-24T01:49:47.960Z,8.72
2022-09-24T01:52:18.822Z,8.87
2022-09-24T01:54:51.696Z,8.97
2022-09-24T01:57:25.161Z,8.91
2022-09-24T01:59:58.962Z,8.85
2022-09-24T02:02:28.819Z,8.81
2022-09-24T02:05:00.771Z,8.74
2022-09-24T02:07:41.508Z,8.78
2022-09-24T02:10:16.671Z,8.94
2022-09-24T02:12:46.677Z,8.88
2022-09-24T02:15:17.426Z,8.78
2022-09-24T02:17:46.473Z,8.75
2022-09-24T02:20:21.756Z,8.65
2022-09-24T02:22:49.897Z,8.56
2022-09-24T02:25:21.206Z,8.50
2022-09-24T02:27:47.825Z,8.51
2022-09-24T02:30:14.811Z,8.46
2022-09-24T02:32:42.202Z,8.58
2022-09-24T02:35:10.849Z,8.45
2022-09-24T02:37:42.622Z,8.53
2022-09-24T02:40:12.396Z,8.56
2022-09-24T02:42:41.116Z,8.40
2022-09-24T02:45:08.367Z,8.30
2022-09-24T02:47:35.546Z,8.27
2022-09-24T02:50:02.790Z,8.40
2022-09-24T02:52:29.524Z,8.51
2022-09-24T02:54:56.040Z,8.42
2022-09-24T02:57:22.542Z,8.31
2022-09-24T02:59:49.021Z,8.37
2022-09-24T03:02:15.697Z,8.19
2022-09-24T03:04:45.068Z,8.21
2022-09-24T03:07:14.578Z,8.29
2022-09-24T03:09:41.212Z,8.43
2022-09-24T03:12:07.693Z,8.37
2022-09-24T03:14:34.207Z,8.37
2022-09-24T03:17:01.327Z,8.45
2022-09-24T03:19:27.871Z,8.40
2022-09-24T03:21:55.662Z,8.50
2022-09-24T03:24:22.292Z,8.44
2022-09-24T03:26:48.825Z,8.32
2022-09-24T03:29:18.150Z,8.33
2022-09-24T03:31:44.748Z,8.28
2022-09-24T03:34:11.572Z,8.39
2022-09-24T03:36:38.190Z,8.55
2022-09-24T03:39:04.723Z,8.79
2022-09-24T03:41:31.186Z,8.84
2022-09-24T03:43:57.695Z,8.78
2022-09-24T03:46:30.303Z,8.74
2022-09-24T03:49:01.849Z,8.63
2022-09-24T03:51:28.383Z,8.51
2022-09-24T03:53:54.990Z,8.46
2022-09-24T03:56:21.520Z,8.48
2022-09-24T03:58:48.319Z,8.81
2022-09-24T04:01:21.558Z,8.92
2022-09-24T04:03:49.531Z,9.00
2022-09-24T04:06:17.894Z,9.03
2022-09-24T04:08:46.172Z,9.01
2022-09-24T04:11:12.661Z,8.90
2022-09-24T04:13:39.144Z,8.76
2022-09-24T04:16:05.955Z,8.59
2022-09-24T04:18:36.999Z,8.50
2022-09-24T04:21:05.833Z,8.69
2022-09-24T04:23:32.371Z,8.82
2022-09-24T04:26:02.323Z,8.94
2022-09-24T04:28:30.133Z,8.80
2022-09-24T04:30:56.884Z,8.82
2022-09-24T04:33:23.686Z,8.78
2022-09-24T04:35:50.314Z,8.92
2022-09-24T04:38:16.905Z,8.88
2022-09-24T04:40:44.950Z,8.91
2022-09-24T04:43:11.501Z,8.91
2022-09-24T04:45:38.532Z,8.84
2022-09-24T04:48:05.080Z,8.95
2022-09-24T04:50:33.347Z,9.08
2022-09-24T04:53:00.202Z,8.94
2022-09-24T04:55:28.287Z,8.87
2022-09-24T04:57:58.334Z,9.05
2022-09-24T05:00:25.079Z,8.97
2022-09-24T05:03:04.134Z,8.89
2022-09-24T05:05:32.481Z,8.87
2022-09-24T05:07:59.686Z,8.74
2022-09-24T05:10:26.805Z,9.01
2022-09-24T05:12:53.642Z,9.10
2022-09-24T05:15:20.737Z,9.12
2022-09-24T05:17:47.640Z,9.01
2022-09-24T05:20:16.313Z,9.04
2022-09-24T05:22:46.186Z,8.97
2022-09-24T05:25:14.394Z,9.04
2022-09-24T05:27:47.890Z,8.94
2022-09-24T05:30:15.190Z,8.97
2022-09-24T05:32:42.450Z,8.98
2022-09-24T05:35:09.528Z,9.01
2022-09-24T05:37:37.184Z,9.12
2022-09-24T05:40:23.882Z,9.02
2022-09-24T05:42:51.066Z,8.92
2022-09-24T05:45:18.433Z,8.93
2022-09-24T05:47:48.621Z,9.14
2022-09-24T05:50:15.132Z,9.11
2022-09-24T05:52:41.673Z,9.18
2022-09-24T05:55:10.819Z,9.18
2022-09-24T05:57:37.520Z,9.26
2022-09-24T06:00:05.694Z,9.25
2022-09-24T06:02:32.312Z,9.35
2022-09-24T06:04:58.884Z,9.62
2022-09-24T06:07:25.569Z,9.49
2022-09-24T06:09:52.522Z,9.45
2022-09-24T06:12:22.775Z,9.34
2022-09-24T06:14:49.425Z,9.39
2022-09-24T06:17:15.963Z,9.63
2022-09-24T06:19:43.036Z,9.34
2022-09-24T06:22:09.552Z,9.35
2022-09-24T06:24:36.059Z,9.55
2022-09-24T06:27:02.793Z,9.67
2022-09-24T06:29:29.268Z,9.85
2022-09-24T06:31:55.854Z,10.03
2022-09-24T06:34:22.344Z,10.07
2022-09-24T06:36:48.823Z,9.98
2022-09-24T06:39:15.417Z,9.95
2022-09-24T06:41:42.709Z,10.17
2022-09-24T06:44:09.189Z,10.36
2022-09-24T06:46:35.799Z,10.47
2022-09-24T06:49:02.402Z,10.37
2022-09-24T06:51:28.923Z,10.36
2022-09-24T06:53:55.536Z,10.43
2022-09-24T06:56:22.097Z,10.90
2022-09-24T06:58:48.825Z,11.00
2022-09-24T07:01:15.570Z,11.27
2022-09-24T07:03:42.113Z,11.45
2022-09-24T07:06:08.684Z,11.64
2022-09-24T07:08:35.342Z,11.94
2022-09-24T07:11:02.274Z,11.94
2022-09-24T07:13:28.846Z,11.62
2022-09-24T07:15:55.447Z,11.68
2022-09-24T07:18:22.059Z,12.10
2022-09-24T07:20:55.785Z,12.12
2022-09-24T07:23:23.281Z,12.09
2022-09-24T07:25:49.908Z,12.32
2022-09-24T07:28:16.481Z,12.84
2022-09-24T07:30:43.184Z,13.16
2022-09-24T07:33:10.002Z,13.11
2022-09-24T07:35:39.900Z,13.28
2022-09-24T07:38:12.026Z,13.50
2022-09-24T07:40:38.624Z,13.69
2022-09-24T07:43:07.030Z,13.87
2022-09-24T07:45:34.055Z,13.88
2022-09-24T07:48:02.917Z,14.00
2022-09-24T07:50:32.083Z,14.12
2022-09-24T07:52:58.630Z,14.36
2022-09-24T07:55:26.322Z,14.36
2022-09-24T07:57:55.105Z,14.24
2022-09-24T08:00:22.926Z,14.26
2022-09-24T08:02:50.170Z,14.52
2022-09-24T08:05:18.138Z,14.58
2022-09-24T08:07:52.855Z,14.60
2022-09-24T08:10:19.415Z,14.63
2022-09-24T08:12:45.947Z,14.68
2022-09-24T08:15:12.601Z,14.57
2022-09-24T08:17:39.101Z,14.84
2022-09-24T08:20:06.070Z,14.89
2022-09-24T08:22:33.455Z,14.94
2022-09-24T08:25:00.402Z,15.00
2022-09-24T08:27:28.003Z,14.98
2022-09-24T08:29:54.504Z,15.05
2022-09-24T08:32:20.966Z,15.39
2022-09-24T08:34:47.511Z,15.47
2022-09-24T08:37:14.035Z,15.57
2022-09-24T08:39:40.560Z,16.00
2022-09-24T08:42:15.767Z,16.03
2022-09-24T08:45:02.839Z,16.14
2022-09-24T08:47:50.418Z,16.14
2022-09-24T08:50:25.785Z,16.15
2022-09-24T08:52:59.673Z,16.53
2022-09-24T08:55:34.646Z,16.58
2022-09-24T08:58:17.854Z,16.64
2022-09-24T09:01:04.360Z,16.21
2022-09-24T09:03:54.217Z,16.27
2022-09-24T09:06:49.971Z,16.06
2022-09-24T09:09:34.773Z,16.19
2022-09-24T09:12:04.653Z,16.13
2022-09-24T09:14:51.860Z,16.34
2022-09-24T09:17:49.735Z,16.40
2022-09-24T09:20:20.010Z,16.86
2022-09-24T09:22:51.741Z,17.00
2022-09-24T09:25:22.608Z,17.14
2022-09-24T09:27:58.613Z,17.41
2022-09-24T09:30:25.222Z,17.90
2022-09-24T09:33:06.732Z,17.69
2022-09-24T09:35:41.759Z,17.76
2022-09-24T09:38:23.499Z,17.48
2022-09-24T09:41:08.550Z,17.79
2022-09-24T09:43:35.468Z,18.07
2022-09-24T09:46:12.725Z,17.59
2022-09-24T09:48:48.845Z,17.64
2022-09-24T09:51:23.715Z,17.90
2022-09-24T09:54:05.617Z,17.70
2022-09-24T09:56:37.392Z,17.66
2022-09-24T09:59:07.161Z,16.99
2022-09-24T10:01:35.609Z,16.85
2022-09-24T10:04:04.722Z,17.12
2022-09-24T10:06:35.560Z,17.16
2022-09-24T10:09:12.935Z,17.40
2022-09-24T10:11:39.704Z,16.92
2022-09-24T10:14:10.643Z,17.00
2022-09-24T10:16:42.830Z,16.85
2022-09-24T10:19:25.296Z,16.47
2022-09-24T10:21:53.644Z,16.21
2022-09-24T10:24:22.826Z,16.30
2022-09-24T10:26:49.882Z,16.34
2022-09-24T10:29:38.779Z,16.54
2022-09-24T10:32:18.531Z,16.80
2022-09-24T10:35:02.028Z,17.02
2022-09-24T10:37:29.286Z,16.37
2022-09-24T10:40:20.724Z,16.21
2022-09-24T10:42:57.326Z,16.09
2022-09-24T10:45:31.747Z,16.22
2022-09-24T10:48:10.990Z,16.56
2022-09-24T10:51:11.754Z,16.51
2022-09-24T10:54:09.679Z,16.44
2022-09-24T10:56:46.789Z,16.63
2022-09-24T10:59:39.514Z,16.64
2022-09-24T11:02:09.065Z,16.82
2022-09-24T11:04:44.105Z,17.02
2022-09-24T11:07:29.075Z,17.05
2022-09-24T11:10:06.001Z,16.64
2022-09-24T11:13:00.683Z,17.30
2022-09-24T11:15:53.516Z,16.98
2022-09-24T11:18:37.299Z,17.05
2022-09-24T11:21:04.409Z,17.11
2022-09-24T11:23:46.752Z,16.99
2022-09-24T11:26:30.631Z,16.45
2022-09-24T11:29:05.840Z,16.03
2022-09-24T11:32:11.418Z,15.98
2022-09-24T11:34:41.555Z,15.91
2022-09-24T11:37:15.142Z,15.88
2022-09-24T11:40:03.479Z,15.82
2022-09-24T11:43:01.992Z,16.38
2022-09-24T11:46:03.931Z,16.28
2022-09-24T11:48:40.706Z,16.40
2022-09-24T11:51:22.079Z,16.49
2022-09-24T11:53:57.119Z,16.11
2022-09-24T11:56:40.198Z,16.04
2022-09-24T11:59:21.840Z,16.11
2022-09-24T12:01:52.975Z,16.21
2022-09-24T12:04:48.409Z,16.19
2022-09-24T12:07:23.579Z,16.22
2022-09-24T12:09:53.601Z,16.57
2022-09-24T12:12:37.553Z,16.76
2022-09-24T12:15:19.321Z,16.77
2022-09-24T12:17:55.057Z,16.43
2022-09-24T12:20:29.557Z,16.38
2022-09-24T12:23:08.156Z,16.03
2022-09-24T12:25:45.124Z,15.81
2022-09-24T12:32:11.731Z,15.47
2022-09-24T12:35:14.223Z,15.55
2022-09-24T12:37:43.106Z,15.68
2022-09-24T12:40:51.936Z,15.61
2022-09-24T12:43:58.734Z,15.51
2022-09-24T12:46:54.829Z,15.46
2022-09-24T12:49:24.352Z,15.43
2022-09-24T12:51:56.068Z,15.60
2022-09-24T12:54:36.874Z,15.77
2022-09-24T12:57:26.399Z,15.92
2022-09-24T12:59:54.683Z,15.96
2022-09-24T13:02:23.951Z,15.90
2022-09-24T13:05:04.698Z,15.93
2022-09-24T13:07:39.936Z,15.90
2022-09-24T13:10:24.226Z,15.86
2022-09-24T13:12:51.017Z,15.79
2022-09-24T13:15:22.972Z,15.78
2022-09-24T13:18:10.160Z,15.91
2022-09-24T13:20:43.826Z,15.91
2022-09-24T13:23:19.755Z,15.91
2022-09-24T13:26:05.665Z,15.92
2022-09-24T13:28:40.901Z,15.92
2022-09-24T13:31:41.049Z,16.03
2022-09-24T13:34:10.621Z,16.06
2022-09-24T13:36:44.300Z,16.06
2022-09-24T13:39:18.260Z,15.98
2022-09-24T13:42:14.195Z,15.79
2022-09-24T13:44:43.207Z,15.50
2022-09-24T13:47:36.319Z,15.42
2022-09-24T13:50:19.673Z,15.46
2022-09-24T13:52:51.127Z,15.51
2022-09-24T13:55:21.801Z,15.47
2022-09-24T13:57:48.762Z,15.51
2022-09-24T14:00:24.591Z,15.54
2022-09-24T14:03:03.634Z,15.62
2022-09-24T14:05:37.161Z,15.73
2022-09-24T14:08:10.528Z,15.56
2022-09-24T14:10:37.363Z,15.54
2022-09-24T14:13:10.331Z,15.62
2022-09-24T14:15:36.948Z,15.64
2022-09-24T14:18:03.864Z,15.67
2022-09-24T14:20:34.302Z,15.63
2022-09-24T14:23:01.304Z,15.57
2022-09-24T14:25:34.276Z,15.54
2022-09-24T14:28:02.546Z,15.59
2022-09-24T14:30:30.814Z,15.56
2022-09-24T14:33:03.851Z,15.53
2022-09-24T14:35:32.327Z,15.51
2022-09-24T14:38:06.460Z,15.50
2022-09-24T14:41:00.802Z,15.49
2022-09-24T14:43:37.699Z,15.36
2022-09-24T14:46:07.476Z,15.34
2022-09-24T14:48:34.692Z,15.37
2022-09-24T14:51:01.605Z,15.27
2022-09-24T14:53:34.212Z,15.19
2022-09-24T14:56:01.411Z,15.19
2022-09-24T14:58:36.370Z,15.21
2022-09-24T15:01:13.971Z,15.22
2022-09-24T15:03:49.049Z,15.22
2022-09-24T15:06:27.306Z,15.16
2022-09-24T15:09:02.590Z,15.08
2022-09-24T15:11:32.829Z,15.08
2022-09-24T15:14:14.797Z,15.07
2022-09-24T15:16:41.931Z,15.05
2022-09-24T15:19:21.630Z,14.98
2022-09-24T15:21:50.461Z,14.98
2022-09-24T15:24:17.814Z,15.02
2022-09-24T15:26:47.300Z,15.03
2022-09-24T15:29:23.947Z,15.04
2022-09-24T15:31:51.367Z,15.07
2022-09-24T15:34:20.101Z,14.97
2022-09-24T15:36:48.606Z,14.89
2022-09-24T15:39:16.196Z,14.93
2022-09-24T15:41:42.669Z,15.01
2022-09-24T15:44:18.678Z,14.99
2022-09-24T15:46:45.407Z,15.03
2022-09-24T15:49:13.012Z,15.07
2022-09-24T15:51:40.175Z,15.05
2022-09-24T15:54:06.872Z,15.06
2022-09-24T15:56:35.856Z,15.05
2022-09-24T15:59:02.722Z,15.06
2022-09-24T16:01:29.415Z,15.12
2022-09-24T16:04:03.687Z,15.22
2022-09-24T16:06:30.349Z,15.22
2022-09-24T16:08:56.847Z,15.10
2022-09-24T16:11:23.340Z,15.08
2022-09-24T16:13:50.654Z,14.98
2022-09-24T16:16:17.966Z,14.90
2022-09-24T16:18:45.719Z,14.71
2022-09-24T16:21:12.338Z,14.56
2022-09-24T16:23:38.893Z,14.54
2022-09-24T16:26:05.557Z,14.49
2022-09-24T16:28:32.095Z,14.45
2022-09-24T16:30:58.648Z,14.37
2022-09-24T16:33:25.603Z,14.30
2022-09-24T16:35:52.172Z,14.29
2022-09-24T16:38:22.755Z,14.17
2022-09-24T16:40:52.100Z,14.05
2022-09-24T16:43:18.812Z,14.04
2022-09-24T16:45:45.273Z,13.96
2022-09-24T16:48:12.034Z,13.86
2022-09-24T16:50:39.803Z,13.78
2022-09-24T16:53:06.283Z,13.61
2022-09-24T16:55:33.013Z,13.47
2022-09-24T16:57:59.950Z,13.28
2022-09-24T17:00:26.597Z,13.11
2022-09-24T17:02:53.137Z,13.01
2022-09-24T17:05:19.711Z,12.89
2022-09-24T17:07:46.349Z,12.77
2022-09-24T17:10:18.551Z,12.78
2022-09-24T17:12:48.428Z,12.71
2022-09-24T17:15:16.348Z,12.69
2022-09-24T17:17:49.596Z,12.65
2022-09-24T17:20:17.895Z,12.62
2022-09-24T17:22:44.839Z,12.60
2022-09-24T17:25:11.336Z,12.56
2022-09-24T17:27:40.109Z,12.51
2022-09-24T17:30:10.999Z,12.40
2022-09-24T17:32:37.537Z,12.38
2022-09-24T17:35:04.354Z,12.37
2022-09-24T17:37:32.501Z,12.34
2022-09-24T17:40:00.214Z,12.23
2022-09-24T17:42:27.993Z,12.23
2022-09-24T17:44:54.511Z,12.30
2022-09-24T17:47:20.983Z,12.28
2022-09-24T17:49:47.520Z,12.32
2022-09-24T17:52:14.025Z,12.30
2022-09-24T17:54:40.577Z,12.32
2022-09-24T17:57:09.620Z,12.66
2022-09-24T17:59:37.347Z,12.85
2022-09-24T18:02:06.801Z,12.81
2022-09-24T18:04:38.353Z,12.70
2022-09-24T18:07:04.957Z,12.52
2022-09-24T18:09:40.798Z,12.49
2022-09-24T18:12:07.398Z,12.38
2022-09-24T18:14:34.982Z,12.22
2022-09-24T18:17:01.582Z,12.26
2022-09-24T18:19:28.169Z,12.18
2022-09-24T18:21:59.987Z,12.19
2022-09-24T18:24:26.531Z,12.04
2022-09-24T18:26:55.333Z,11.88
2022-09-24T18:29:22.162Z,11.75
2022-09-24T18:31:49.658Z,11.78
2022-09-24T18:34:16.427Z,11.77
2022-09-24T18:36:44.056Z,11.74
2022-09-24T18:39:13.521Z,11.72
2022-09-24T18:41:41.170Z,11.60
2022-09-24T18:44:07.697Z,11.56
2022-09-24T18:46:35.437Z,11.48
2022-09-24T18:49:02.433Z,11.45
2022-09-24T18:51:31.472Z,11.47
2022-09-24T18:54:12.641Z,11.35
2022-09-24T18:56:41.222Z,11.30
2022-09-24T18:59:12.650Z,11.26
2022-09-24T19:01:42.320Z,11.25
2022-09-24T19:04:11.213Z,11.23
2022-09-24T19:06:40.076Z,11.24
2022-09-24T19:09:10.080Z,11.28
2022-09-24T19:11:37.254Z,11.32
2022-09-24T19:14:04.067Z,11.14
2022-09-24T19:16:31.253Z,11.22
2022-09-24T19:18:58.613Z,11.16
2022-09-24T19:21:25.560Z,11.08
2022-09-24T19:23:58.630Z,11.05
2022-09-24T19:26:34.630Z,10.96
2022-09-24T19:29:01.291Z,10.91
2022-09-24T19:31:30.038Z,10.89
2022-09-24T19:33:57.338Z,10.80
2022-09-24T19:36:23.928Z,10.72
2022-09-24T19:38:51.113Z,10.66
2022-09-24T19:41:25.154Z,10.63
2022-09-24T19:43:57.222Z,10.63
2022-09-24T19:46:25.414Z,10.65
2022-09-24T19:48:53.056Z,10.70
2022-09-24T19:51:21.568Z,10.63
2022-09-24T19:53:49.840Z,10.67
2022-09-24T19:56:16.790Z,10.54
2022-09-24T19:58:47.137Z,10.54
2022-09-24T20:01:17.230Z,10.50
2022-09-24T20:03:44.623Z,10.50
2022-09-24T20:06:13.898Z,10.54
2022-09-24T20:08:40.569Z,10.59
2022-09-24T20:11:10.071Z,10.60
2022-09-24T20:13:38.431Z,10.58
2022-09-24T20:16:06.490Z,10.50
2022-09-24T20:18:34.710Z,10.50
2022-09-24T20:21:05.297Z,10.44
2022-09-24T20:23:32.264Z,10.40
2022-09-24T20:26:17.526Z,10.54
2022-09-24T20:28:44.292Z,10.51
2022-09-24T20:31:12.444Z,10.52
2022-09-24T20:33:41.212Z,10.45
2022-09-24T20:36:14.930Z,10.57
2022-09-24T20:38:43.794Z,10.61
2022-09-24T20:41:15.296Z,10.58
2022-09-24T20:43:41.847Z,10.74
2022-09-24T20:46:14.165Z,10.59
2022-09-24T20:48:40.790Z,10.61
2022-09-24T20:51:12.369Z,10.54
2022-09-24T20:53:39.064Z,10.59
2022-09-24T20:56:06.080Z,10.59
2022-09-24T20:58:33.733Z,10.60
2022-09-24T21:01:00.536Z,10.56
2022-09-24T21:03:43.372Z,10.63
2022-09-24T21:06:12.117Z,10.69
2022-09-24T21:08:40.915Z,10.63
2022-09-24T21:11:19.715Z,10.78
2022-09-24T21:13:50.116Z,10.62
2022-09-24T21:16:25.012Z,10.49
2022-09-24T21:18:54.316Z,10.55
2022-09-24T21:21:28.947Z,10.46
2022-09-24T21:23:58.063Z,10.52
2022-09-24T21:26:32.790Z,10.43
2022-09-24T21:29:01.862Z,10.44
2022-09-24T21:31:32.525Z,10.50
2022-09-24T21:33:59.533Z,10.47
2022-09-24T21:36:29.426Z,10.37
2022-09-24T21:38:56.943Z,10.35
2022-09-24T21:41:31.841Z,10.36
2022-09-24T21:43:58.994Z,10.34
2022-09-24T21:46:27.204Z,10.31
2022-09-24T21:48:54.050Z,10.22
2022-09-24T21:51:22.068Z,10.23
2022-09-24T21:53:52.824Z,10.19
2022-09-24T21:56:20.310Z,10.22
2022-09-24T21:58:51.087Z,10.31
2022-09-24T22:01:20.548Z,10.37
2022-09-24T22:03:47.408Z,10.35
2022-09-24T22:06:14.937Z,10.37
2022-09-24T22:08:41.707Z,10.34
2022-09-24T22:11:09.856Z,10.19
2022-09-24T22:13:37.452Z,10.07
2022-09-24T22:16:06.053Z,10.01
2022-09-24T22:18:34.131Z,10.03
2022-09-24T22:21:06.477Z,10.11
2022-09-24T22:23:33.129Z,10.13
2022-09-24T22:25:59.667Z,10.15
2022-09-24T22:28:27.308Z,10.19
2022-09-24T22:30:56.104Z,10.31
2022-09-24T22:33:42.165Z,10.36
2022-09-24T22:36:08.919Z,10.29
2022-09-24T22:38:36.036Z,10.17
2022-09-24T22:41:04.662Z,10.05
2022-09-24T22:43:32.349Z,9.96
2022-09-24T22:45:59.811Z,10.00
2022-09-24T22:48:26.499Z,9.92
2022-09-24T22:50:53.117Z,9.86
2022-09-24T22:53:20.406Z,9.81
2022-09-24T22:55:52.343Z,9.81
2022-09-24T22:58:19.258Z,9.84
2022-09-24T23:00:45.730Z,9.85
2022-09-24T23:03:12.306Z,9.85
2022-09-24T23:05:39.189Z,9.98
2022-09-24T23:08:05.749Z,9.99
2022-09-24T23:10:32.518Z,9.94
2022-09-24T23:12:59.175Z,10.01
2022-09-24T23:15:25.728Z,9.94
2022-09-24T23:17:52.512Z,10.01
2022-09-24T23:20:19.019Z,10.02
2022-09-24T23:22:45.554Z,10.10
2022-09-24T23:25:12.104Z,10.13
2022-09-24T23:27:38.617Z,10.23
2022-09-24T23:30:05.805Z,10.16
2022-09-24T23:32:32.429Z,10.21
2022-09-24T23:34:59.144Z,10.19
2022-09-24T23:37:26.196Z,10.21
2022-09-24T23:39:52.735Z,10.21
2022-09-24T23:42:19.968Z,9.99
2022-09-24T23:44:48.549Z,10.11
2022-09-24T23:47:15.151Z,10.11
2022-09-24T23:49:41.816Z,10.10
2022-09-24T23:52:08.402Z,10.04
2022-09-24T23:54:37.340Z,10.14
2022-09-24T23:57:06.349Z,10.06
2022-09-24T23:59:33.867Z,10.03
